createdAt,value
2019-05-12T06:55:55.785Z,16.45
2019-05-12T06:58:32.134Z,16.48
2019-05-12T07:01:10.284Z,16.57
2019-05-12T07:03:37.163Z,16.69
2019-05-12T07:06:09.283Z,16.70
2019-05-12T07:08:40.202Z,16.86
2019-05-12T07:11:14.306Z,17.00
2019-05-12T07:13:44.859Z,17.01
2019-05-12T07:16:23.121Z,17.12
2019-05-12T07:18:49.813Z,17.23
2019-05-12T07:21:24.070Z,17.24
2019-05-12T07:24:14.236Z,17.24
2019-05-12T07:31:06.261Z,17.25
2019-05-12T07:33:45.848Z,16.94
2019-05-12T07:47:27.217Z,17.08
2019-05-12T07:49:55.267Z,16.97
2019-05-12T07:52:33.741Z,17.01
2019-05-12T07:55:06.511Z,17.09
2019-05-12T07:57:51.722Z,16.90
2019-05-12T08:00:11.326Z,17.00
2019-05-12T08:02:48.010Z,17.01
2019-05-12T08:05:21.433Z,16.98
2019-05-12T08:07:54.297Z,17.00
2019-05-12T08:10:27.147Z,17.06
2019-05-12T08:13:00.782Z,17.07
2019-05-12T08:15:34.348Z,17.10
2019-05-12T08:18:08.085Z,17.13
2019-05-12T08:20:43.557Z,17.14
2019-05-12T08:23:14.867Z,16.97
2019-05-12T08:25:46.186Z,16.95
2019-05-12T08:28:19.295Z,17.04
2019-05-12T08:30:52.224Z,17.07
2019-05-12T08:33:25.135Z,17.06
2019-05-12T08:36:05.558Z,17.07
2019-05-12T08:38:30.621Z,16.94
2019-05-12T08:41:04.084Z,16.84
2019-05-12T08:43:34.587Z,16.79
2019-05-12T08:46:11.732Z,16.80
2019-05-12T08:48:39.673Z,16.76
2019-05-12T08:51:17.002Z,16.67
2019-05-12T08:53:44.053Z,16.68
2019-05-12T08:56:19.444Z,16.62
2019-05-12T08:58:51.411Z,16.64
2019-05-12T09:01:26.520Z,16.63
2019-05-12T09:04:00.343Z,16.59
2019-05-12T09:06:34.318Z,16.54
2019-05-12T09:09:08.075Z,16.53
2019-05-12T09:11:39.311Z,16.53
2019-05-12T09:14:10.487Z,16.48
2019-05-12T09:16:44.015Z,16.41
2019-05-12T09:19:20.506Z,16.39
2019-05-12T09:21:48.178Z,16.22
2019-05-12T09:24:26.942Z,16.10
2019-05-12T09:26:53.859Z,15.99
2019-05-12T09:29:25.414Z,15.89
2019-05-12T09:31:59.279Z,15.91
2019-05-12T09:34:30.115Z,15.89
2019-05-12T09:37:04.029Z,15.86
2019-05-12T09:39:42.767Z,15.87
2019-05-12T09:42:09.551Z,15.90
2019-05-12T09:44:41.400Z,15.91
2019-05-12T09:47:23.548Z,15.90
2019-05-12T09:49:47.213Z,15.93
2019-05-12T09:52:22.264Z,15.95
2019-05-12T09:54:53.483Z,15.96
2019-05-12T09:57:24.789Z,16.03
2019-05-12T09:59:59.506Z,16.12
2019-05-12T10:02:30.152Z,16.15
2019-05-12T10:05:03.719Z,16.09
2019-05-12T10:07:35.563Z,16.13
2019-05-12T10:10:08.025Z,16.06
2019-05-12T10:12:46.331Z,16.04
2019-05-12T10:15:13.691Z,16.02
2019-05-12T10:17:46.266Z,16.07
2019-05-12T10:20:21.470Z,16.08
2019-05-12T10:22:51.134Z,16.09
2019-05-12T10:25:23.271Z,16.00
2019-05-12T10:27:54.977Z,16.04
2019-05-12T10:30:26.064Z,16.06
2019-05-12T10:32:57.264Z,15.98
2019-05-12T10:35:30.480Z,15.90
2019-05-12T10:38:10.464Z,15.85
2019-05-12T10:40:37.231Z,15.92
2019-05-12T10:43:08.243Z,15.94
2019-05-12T10:45:39.380Z,15.96
2019-05-12T10:48:10.432Z,15.87
2019-05-12T10:50:44.311Z,15.89
2019-05-12T10:53:17.976Z,15.77
2019-05-12T10:55:49.128Z,15.89
2019-05-12T10:58:24.431Z,15.76
2019-05-12T11:00:58.870Z,15.72
2019-05-12T11:03:28.965Z,15.73
2019-05-12T11:06:07.286Z,15.73
2019-05-12T11:08:34.013Z,15.86
2019-05-12T11:11:05.107Z,15.91
2019-05-12T11:13:40.335Z,15.96
2019-05-12T11:16:09.009Z,15.97
2019-05-12T11:18:40.069Z,16.00
2019-05-12T11:21:21.561Z,15.97
2019-05-12T11:23:54.923Z,16.01
2019-05-12T11:26:26.009Z,16.05
2019-05-12T11:29:00.060Z,16.07
2019-05-12T11:31:33.562Z,16.15
2019-05-12T11:34:05.082Z,16.20
2019-05-12T11:36:37.301Z,16.26
2019-05-12T11:47:03.707Z,16.41
2019-05-12T11:53:32.244Z,16.66
2019-05-12T12:14:48.408Z,17.13
2019-05-12T12:17:31.107Z,17.23
2019-05-12T12:20:24.169Z,17.31
2019-05-12T12:22:54.084Z,17.38
2019-05-12T12:25:29.905Z,17.40
2019-05-12T12:28:24.301Z,17.40
2019-05-12T12:31:07.721Z,17.43
2019-05-12T12:33:47.139Z,17.42
2019-05-12T12:36:23.666Z,17.45
2019-05-12T12:39:04.173Z,17.50
2019-05-12T12:51:17.321Z,17.77
2019-05-12T12:56:53.460Z,17.95
2019-05-12T13:00:03.421Z,18.07
2019-05-12T13:03:14.569Z,18.18
2019-05-12T13:06:10.559Z,18.15
2019-05-12T13:08:43.837Z,18.21
2019-05-12T13:22:18.922Z,18.30
2019-05-12T13:42:30.318Z,17.89
2019-05-12T13:45:25.874Z,17.89
2019-05-12T13:52:39.875Z,17.76
2019-05-12T13:59:40.076Z,17.64
2019-05-12T14:21:00.302Z,17.23
2019-05-12T14:28:04.465Z,16.81
2019-05-12T14:30:49.639Z,16.73
2019-05-12T14:33:21.370Z,16.74
2019-05-12T14:36:06.276Z,16.77
2019-05-12T14:42:44.009Z,16.68
2019-05-12T14:49:47.049Z,16.58
2019-05-12T14:57:13.819Z,16.38
2019-05-12T15:01:23.682Z,16.36
2019-05-12T15:04:10.268Z,16.31
2019-05-12T15:18:03.309Z,16.26
2019-05-12T15:28:07.873Z,15.90
2019-05-12T15:31:00.456Z,15.85
2019-05-12T15:33:30.646Z,15.70
2019-05-12T15:36:13.650Z,15.49
2019-05-12T15:38:54.488Z,15.38
2019-05-12T15:41:28.603Z,15.34
2019-05-12T15:52:14.286Z,15.14
2019-05-12T15:54:41.736Z,15.17
2019-05-12T15:57:19.471Z,15.22
2019-05-12T16:03:46.559Z,15.14
2019-05-12T16:06:27.144Z,14.82
2019-05-12T16:09:03.966Z,14.71
2019-05-12T16:11:36.303Z,14.76
2019-05-12T16:14:14.473Z,14.76
2019-05-12T16:16:46.815Z,14.76
2019-05-12T16:19:23.466Z,14.82
2019-05-12T16:29:26.034Z,14.76
2019-05-12T16:36:11.446Z,14.40
2019-05-12T16:54:24.028Z,14.17
2019-05-12T16:56:55.248Z,14.09
2019-05-12T17:13:34.005Z,13.84
2019-05-12T17:16:09.421Z,13.85
2019-05-12T17:22:55.309Z,13.84
2019-05-12T17:36:18.002Z,13.69
2019-05-12T17:38:56.172Z,13.66
2019-05-12T17:41:42.743Z,13.68
2019-05-12T17:44:15.253Z,13.66
2019-05-12T17:46:47.341Z,13.62
2019-05-12T17:49:25.555Z,13.61
2019-05-12T17:51:53.342Z,13.59
2019-05-12T17:54:26.522Z,13.54
2019-05-12T17:56:57.796Z,13.50
2019-05-12T17:59:29.463Z,13.49
2019-05-12T18:02:05.938Z,13.49
2019-05-12T18:04:37.010Z,13.48
2019-05-12T18:07:13.190Z,13.47
2019-05-12T18:09:44.199Z,13.44
2019-05-12T18:12:15.430Z,13.41
2019-05-12T18:14:52.019Z,13.40
2019-05-12T18:17:19.325Z,13.39
2019-05-12T18:19:58.999Z,13.35
2019-05-12T18:22:23.637Z,13.31
2019-05-12T18:24:54.785Z,13.29
2019-05-12T18:27:26.026Z,13.27
2019-05-12T18:29:57.164Z,13.25
2019-05-12T18:32:28.308Z,13.24
2019-05-12T18:34:59.509Z,13.20
2019-05-12T18:37:34.408Z,13.13
2019-05-12T18:40:10.626Z,13.09
2019-05-12T18:42:41.722Z,13.08
2019-05-12T18:45:17.744Z,13.03
2019-05-12T18:47:46.864Z,13.00
2019-05-12T18:50:20.702Z,12.99
2019-05-12T18:52:52.470Z,12.96
2019-05-12T18:55:23.706Z,12.92
2019-05-12T18:57:54.992Z,12.90
2019-05-12T19:00:26.672Z,12.87
2019-05-12T19:03:05.159Z,12.87
2019-05-12T19:05:32.550Z,12.81
2019-05-12T19:08:03.855Z,12.78
2019-05-12T19:10:38.536Z,12.77
2019-05-12T19:13:10.626Z,12.75
2019-05-12T19:15:43.961Z,12.72
2019-05-12T19:22:09.981Z,12.67
2019-05-12T19:24:50.007Z,12.54
2019-05-12T19:27:20.764Z,12.48
2019-05-12T19:29:49.615Z,12.47
2019-05-12T19:32:20.750Z,12.45
2019-05-12T19:34:54.460Z,12.43
2019-05-12T19:37:28.634Z,12.41
2019-05-12T19:40:04.039Z,12.36
2019-05-12T19:42:35.532Z,12.35
2019-05-12T19:45:16.328Z,12.35
2019-05-12T20:02:44.687Z,12.23
2019-05-12T20:13:13.641Z,12.17
2019-05-12T20:15:44.513Z,12.12
2019-05-12T20:18:15.639Z,12.12
2019-05-12T20:20:46.686Z,12.10
2019-05-12T20:23:17.788Z,12.06
2019-05-12T20:25:48.844Z,12.04
2019-05-12T20:28:20.783Z,12.02
2019-05-12T20:31:00.939Z,12.00
2019-05-12T20:33:26.239Z,11.98
2019-05-12T20:36:06.527Z,11.97
2019-05-12T20:38:34.280Z,11.95
2019-05-12T20:41:04.980Z,11.93
2019-05-12T20:43:40.748Z,11.94
2019-05-12T20:46:13.044Z,11.92
2019-05-12T20:48:44.609Z,11.91
2019-05-12T20:51:20.122Z,11.89
2019-05-12T20:53:48.607Z,11.88
2019-05-12T20:56:22.100Z,11.86
2019-05-12T20:58:55.527Z,11.84
2019-05-12T21:01:30.197Z,11.83
2019-05-12T21:03:59.411Z,11.82
2019-05-12T21:06:33.147Z,11.81
2019-05-12T21:09:06.399Z,11.80
2019-05-12T21:11:40.749Z,11.78
2019-05-12T21:14:11.816Z,11.76
2019-05-12T21:16:44.899Z,11.73
2019-05-12T21:19:16.777Z,11.68
2019-05-12T21:21:51.101Z,11.65
2019-05-12T21:24:35.930Z,11.61
2019-05-12T21:27:19.704Z,11.57
2019-05-12T21:29:45.308Z,11.56
2019-05-12T21:36:24.462Z,11.49
2019-05-12T21:38:54.230Z,11.42
2019-05-12T21:41:26.967Z,11.38
2019-05-12T21:55:06.248Z,11.24
2019-05-12T21:57:34.553Z,11.20
2019-05-12T22:00:14.825Z,11.20
2019-05-12T22:02:46.601Z,11.20
2019-05-12T22:05:23.619Z,11.19
2019-05-12T22:07:52.252Z,11.19
2019-05-12T22:10:26.746Z,11.18
2019-05-12T22:13:00.564Z,11.14
2019-05-12T22:15:33.644Z,11.12
2019-05-12T22:18:05.163Z,11.10
2019-05-12T22:20:37.212Z,11.09
2019-05-12T22:23:11.891Z,11.04
2019-05-12T22:25:43.548Z,11.02
2019-05-12T22:28:15.758Z,10.96
2019-05-12T22:30:47.398Z,10.91
2019-05-12T22:33:26.021Z,10.85
2019-05-12T22:36:05.097Z,10.82
2019-05-12T22:38:30.827Z,10.80
2019-05-12T22:41:04.426Z,10.77
2019-05-12T22:43:40.789Z,10.71
2019-05-12T22:46:08.758Z,10.65
2019-05-12T23:03:51.247Z,10.48
2019-05-12T23:06:25.077Z,10.45
2019-05-12T23:19:51.362Z,10.20
2019-05-12T23:22:23.487Z,10.11
2019-05-12T23:39:00.473Z,9.72
2019-05-12T23:41:43.706Z,9.67
2019-05-12T23:44:15.134Z,9.67
2019-05-12T23:46:57.909Z,9.59
2019-05-12T23:49:30.799Z,9.56
2019-05-12T23:52:04.126Z,9.53
2019-05-12T23:54:35.577Z,9.50
2019-05-12T23:57:17.365Z,9.48
